createdAt,value
2022-07-26T00:04:37.468Z,97506.41
2022-07-26T00:09:38.747Z,97512.25
2022-07-26T00:14:40.015Z,97521.03
2022-07-26T00:19:42.412Z,97538.81
2022-07-26T00:24:43.719Z,97549.25
2022-07-26T00:29:44.973Z,97565.16
2022-07-26T00:34:46.366Z,97561.56
2022-07-26T00:39:47.714Z,97554.66
2022-07-26T00:44:49.044Z,97559.47
2022-07-26T00:49:50.311Z,97555.13
2022-07-26T00:54:51.588Z,97548.94
2022-07-26T00:59:52.879Z,97553.06
2022-07-26T01:04:55.094Z,97550.38
2022-07-26T01:09:56.394Z,97544.09
2022-07-26T01:14:57.655Z,97546.22
2022-07-26T01:19:58.925Z,97545.63
2022-07-26T01:25:00.276Z,97528.91
2022-07-26T01:30:01.579Z,97545.16
2022-07-26T01:35:02.859Z,97544.91
2022-07-26T01:40:04.712Z,97538.38
2022-07-26T01:45:08.503Z,97531.84
2022-07-26T01:50:09.876Z,97527.72
2022-07-26T01:55:11.245Z,97531.94
2022-07-26T02:00:12.509Z,97532.91
2022-07-26T02:05:13.784Z,97535.94
2022-07-26T02:10:15.087Z,97533.72
2022-07-26T02:15:16.506Z,97524.13
2022-07-26T02:20:17.789Z,97520.53
2022-07-26T02:25:19.044Z,97516.44
2022-07-26T02:30:20.327Z,97516.34
2022-07-26T02:35:21.581Z,97521.09
2022-07-26T02:40:22.842Z,97516.97
2022-07-26T02:45:24.109Z,97523.19
2022-07-26T02:50:25.359Z,97529.41
2022-07-26T02:55:26.783Z,97523.09
2022-07-26T03:00:28.185Z,97530.78
2022-07-26T03:05:29.554Z,97531.47
2022-07-26T03:10:30.807Z,97531.69
2022-07-26T03:15:32.338Z,97535.78
2022-07-26T03:20:33.634Z,97540.69
2022-07-26T03:25:37.541Z,97539.91
2022-07-26T03:30:39.214Z,97544.22
2022-07-26T03:35:40.607Z,97544.00
2022-07-26T03:40:41.858Z,97550.34
2022-07-26T03:45:43.287Z,97547.16
2022-07-26T03:50:44.655Z,97550.06
2022-07-26T03:56:04.631Z,97550.06
2022-07-26T04:01:06.035Z,97549.81
2022-07-26T04:06:07.372Z,97558.66
2022-07-26T04:11:09.140Z,97551.84
2022-07-26T04:16:10.411Z,97559.19
2022-07-26T04:26:16.091Z,97551.84
2022-07-26T04:31:17.486Z,97543.44
2022-07-26T04:36:18.838Z,97546.50
2022-07-26T04:41:20.109Z,97544.06
2022-07-26T04:46:21.457Z,97551.50
2022-07-26T04:51:22.826Z,97557.34
2022-07-26T04:56:24.638Z,97570.25
2022-07-26T05:01:26.001Z,97571.56
2022-07-26T05:06:30.354Z,97556.53
2022-07-26T05:11:31.600Z,97561.31
2022-07-26T05:16:32.969Z,97563.91
2022-07-26T05:21:34.762Z,97567.34
2022-07-26T05:26:36.094Z,97552.19
2022-07-26T05:31:37.458Z,97555.84
2022-07-26T05:36:38.744Z,97553.25
2022-07-26T05:41:40.008Z,97544.84
2022-07-26T05:52:12.167Z,97551.03
2022-07-26T05:57:13.500Z,97546.09
2022-07-26T06:02:14.928Z,97543.91
2022-07-26T06:07:16.232Z,97542.56
2022-07-26T06:12:17.541Z,97527.69
2022-07-26T06:17:19.147Z,97531.47
2022-07-26T06:22:20.479Z,97534.94
2022-07-26T06:27:21.724Z,97537.91
2022-07-26T06:32:23.020Z,97527.47
2022-07-26T06:37:24.291Z,97512.72
2022-07-26T06:42:25.551Z,97530.56
2022-07-26T06:47:26.844Z,97526.78
2022-07-26T06:52:28.127Z,97531.69
2022-07-26T06:57:29.439Z,97535.59
2022-07-26T07:02:30.752Z,97540.19
2022-07-26T07:07:32.035Z,97528.16
2022-07-26T07:12:35.484Z,97542.81
2022-07-26T07:17:36.755Z,97536.56
2022-07-26T07:22:38.062Z,97527.47
2022-07-26T07:27:39.322Z,97513.69
2022-07-26T07:32:40.629Z,97528.78
2022-07-26T07:37:52.823Z,97519.06
2022-07-26T07:42:55.402Z,97498.19
2022-07-26T07:47:56.700Z,97502.28
2022-07-26T07:52:59.364Z,97497.13
2022-07-26T07:58:03.199Z,97490.00
2022-07-26T08:03:04.458Z,97489.88
2022-07-26T08:08:05.697Z,97479.72
2022-07-26T08:13:09.962Z,97472.59
2022-07-26T08:18:12.462Z,97472.44
2022-07-26T08:23:15.467Z,97472.94
2022-07-26T08:28:37.704Z,97461.50
2022-07-26T08:33:39.365Z,97456.38
2022-07-26T08:38:42.231Z,97436.97
2022-07-26T08:43:46.724Z,97436.44
2022-07-26T08:48:53.801Z,97426.03
2022-07-26T08:53:59.100Z,97433.84
2022-07-26T08:59:05.644Z,97437.19
2022-07-26T09:04:07.425Z,97437.88
2022-07-26T09:09:09.097Z,97425.69
2022-07-26T09:14:10.583Z,97425.06
2022-07-26T09:19:11.830Z,97408.22
2022-07-26T09:24:13.091Z,97416.28
2022-07-26T09:29:14.430Z,97402.22
2022-07-26T09:34:15.678Z,97396.75
2022-07-26T09:39:16.937Z,97392.56
2022-07-26T09:44:18.205Z,97389.97
2022-07-26T09:49:20.589Z,97388.63
2022-07-26T09:54:21.915Z,97398.72
2022-07-26T09:59:23.228Z,97401.88
2022-07-26T10:04:24.507Z,97400.88
2022-07-26T10:09:25.775Z,97390.94
2022-07-26T10:14:27.652Z,97383.88
2022-07-26T10:19:28.932Z,97396.09
2022-07-26T10:24:34.574Z,97377.66
2022-07-26T10:29:35.819Z,97374.75
2022-07-26T10:34:37.085Z,97369.97
2022-07-26T10:39:38.342Z,97362.69
2022-07-26T10:44:39.600Z,97382.78
2022-07-26T10:49:40.916Z,97390.53
2022-07-26T10:54:42.231Z,97383.13
2022-07-26T10:59:55.795Z,97384.50
2022-07-26T11:04:57.641Z,97397.25
2022-07-26T11:09:58.891Z,97405.78
2022-07-26T11:15:00.148Z,97408.59
2022-07-26T11:20:01.390Z,97392.44
2022-07-26T11:25:02.657Z,97390.69
2022-07-26T11:30:03.912Z,97393.63
2022-07-26T11:35:05.216Z,97391.84
2022-07-26T11:40:06.534Z,97393.53
2022-07-26T11:45:07.864Z,97386.38
2022-07-26T11:50:14.322Z,97375.16
2022-07-26T11:55:19.815Z,97366.25
2022-07-26T12:00:21.109Z,97350.47
2022-07-26T12:05:22.640Z,97326.06
2022-07-26T12:10:24.449Z,97326.03
2022-07-26T12:15:25.836Z,97312.84
2022-07-26T12:20:28.217Z,97317.84
2022-07-26T12:25:29.545Z,97303.53
2022-07-26T12:36:01.520Z,97303.16
2022-07-26T12:41:02.850Z,97294.03
2022-07-26T12:46:04.200Z,97307.84
2022-07-26T12:51:05.472Z,97310.38
2022-07-26T12:56:06.727Z,97300.81
2022-07-26T13:01:08.066Z,97294.44
2022-07-26T13:06:09.392Z,97296.09
2022-07-26T13:11:10.703Z,97290.59
2022-07-26T13:16:12.600Z,97302.25
2022-07-26T13:21:13.955Z,97283.19
2022-07-26T13:26:15.192Z,97256.34
2022-07-26T13:31:18.203Z,97250.38
2022-07-26T13:36:19.904Z,97256.38
2022-07-26T13:41:27.393Z,97240.91
2022-07-26T13:46:33.652Z,97251.44
2022-07-26T13:51:53.964Z,97227.69
2022-07-26T13:56:55.307Z,97226.44
2022-07-26T14:01:56.757Z,97228.06
2022-07-26T14:06:58.427Z,97236.66
2022-07-26T14:11:59.696Z,97252.44
2022-07-26T14:17:01.015Z,97255.91
2022-07-26T14:22:02.352Z,97265.69
2022-07-26T14:27:03.625Z,97244.03
2022-07-26T14:32:05.112Z,97252.13
2022-07-26T14:37:09.931Z,97242.88
2022-07-26T14:42:16.627Z,97250.78
2022-07-26T14:47:17.966Z,97255.16
2022-07-26T14:52:19.253Z,97234.84
2022-07-26T14:57:20.538Z,97237.28
2022-07-26T15:02:21.817Z,97247.34
2022-07-26T15:07:23.191Z,97241.09
2022-07-26T15:12:24.468Z,97243.97
2022-07-26T15:17:25.754Z,97239.41
2022-07-26T15:22:27.018Z,97239.00
2022-07-26T15:27:28.307Z,97239.63
2022-07-26T15:32:29.596Z,97239.91
2022-07-26T15:37:30.888Z,97220.88
2022-07-26T15:42:32.295Z,97222.16
2022-07-26T15:47:53.914Z,97247.16
2022-07-26T15:52:55.753Z,97241.13
2022-07-26T15:57:57.008Z,97240.38
2022-07-26T16:02:58.267Z,97234.53
2022-07-26T16:07:59.749Z,97235.19
2022-07-26T16:13:01.467Z,97232.72
2022-07-26T16:18:06.285Z,97237.84
2022-07-26T16:23:08.005Z,97228.56
2022-07-26T16:28:09.275Z,97226.34
2022-07-26T16:33:10.544Z,97230.19
2022-07-26T16:38:11.820Z,97229.22
2022-07-26T16:43:13.093Z,97232.50
2022-07-26T16:48:14.392Z,97235.91
2022-07-26T16:53:15.655Z,97243.72
2022-07-26T16:58:16.942Z,97236.16
2022-07-26T17:03:18.406Z,97234.81
2022-07-26T17:08:19.712Z,97234.28
2022-07-26T17:13:21.021Z,97236.16
2022-07-26T17:18:22.457Z,97239.34
2022-07-26T17:23:23.767Z,97244.16
2022-07-26T17:28:25.061Z,97245.13
2022-07-26T17:33:26.420Z,97245.47
2022-07-26T17:38:27.744Z,97249.72
2022-07-26T17:43:36.752Z,97248.41
2022-07-26T17:48:38.361Z,97249.63
2022-07-26T17:53:39.644Z,97255.50
2022-07-26T17:58:40.900Z,97257.34
2022-07-26T18:03:42.179Z,97269.50
2022-07-26T18:08:43.452Z,97267.16
2022-07-26T18:13:44.737Z,97282.31
2022-07-26T18:18:46.075Z,97282.81
2022-07-26T18:24:06.986Z,97296.28
2022-07-26T18:29:09.095Z,97303.66
2022-07-26T18:34:10.617Z,97310.97
2022-07-26T18:39:12.329Z,97330.28
2022-07-26T18:44:13.875Z,97346.47
2022-07-26T18:49:19.706Z,97352.00
2022-07-26T18:54:21.874Z,97359.59
2022-07-26T18:59:23.134Z,97370.97
2022-07-26T19:04:24.654Z,97376.25
2022-07-26T19:09:26.014Z,97389.69
2022-07-26T19:14:27.310Z,97399.50
2022-07-26T19:19:28.689Z,97410.50
2022-07-26T19:24:29.972Z,97423.94
2022-07-26T19:35:05.733Z,97440.44
2022-07-26T19:40:07.229Z,97450.09
2022-07-26T19:45:08.569Z,97447.88
2022-07-26T19:50:09.876Z,97447.19
2022-07-26T19:55:11.172Z,97445.91
2022-07-26T20:00:12.552Z,97452.88
2022-07-26T20:05:13.948Z,97460.66
2022-07-26T20:10:15.239Z,97458.78
2022-07-26T20:15:17.029Z,97446.91
2022-07-26T20:20:18.303Z,97452.88
2022-07-26T20:25:21.715Z,97462.09
2022-07-26T20:30:23.210Z,97467.97
2022-07-26T20:35:24.546Z,97476.63
2022-07-26T20:40:28.652Z,97484.88
2022-07-26T20:45:29.962Z,97496.50
2022-07-26T20:50:31.250Z,97505.75
2022-07-26T20:55:32.645Z,97510.66
2022-07-26T21:00:34.070Z,97509.06
2022-07-26T21:05:35.567Z,97518.13
2022-07-26T21:10:36.983Z,97524.03
2022-07-26T21:15:42.628Z,97535.78
2022-07-26T21:20:43.919Z,97530.88
2022-07-26T21:25:45.248Z,97529.78
2022-07-26T21:30:46.566Z,97532.44
2022-07-26T21:35:48.322Z,97536.97
2022-07-26T21:40:49.782Z,97541.88
2022-07-26T21:45:51.117Z,97558.31
2022-07-26T21:50:52.492Z,97565.28
2022-07-26T21:55:53.788Z,97562.19
2022-07-26T22:01:06.194Z,97570.22
2022-07-26T22:06:08.425Z,97568.88
2022-07-26T22:11:09.734Z,97572.34
2022-07-26T22:16:11.155Z,97566.50
2022-07-26T22:21:12.572Z,97562.28
2022-07-26T22:26:13.914Z,97565.44
2022-07-26T22:31:15.329Z,97560.78
2022-07-26T22:36:17.775Z,97570.06
2022-07-26T22:41:19.087Z,97575.41
2022-07-26T22:46:27.597Z,97578.84
2022-07-26T22:51:30.497Z,97585.63
2022-07-26T22:56:31.831Z,97583.06
2022-07-26T23:01:33.410Z,97578.53
2022-07-26T23:06:34.769Z,97583.47
2022-07-26T23:11:36.067Z,97582.94
2022-07-26T23:16:37.511Z,97581.13
2022-07-26T23:21:38.999Z,97577.34
2022-07-26T23:26:40.287Z,97590.16
2022-07-26T23:31:42.307Z,97586.69
2022-07-26T23:36:43.702Z,97583.91
2022-07-26T23:41:45.003Z,97576.41
2022-07-26T23:46:46.410Z,97567.03
2022-07-26T23:51:47.755Z,97557.59
2022-07-26T23:56:49.111Z,97550.75
